createdAt,value
2023-02-09T00:03:48.982Z,99779.59
2023-02-09T00:09:09.877Z,99778.84
2023-02-09T00:14:32.285Z,99765.16
2023-02-09T00:19:56.420Z,99760.78
2023-02-09T00:25:17.028Z,99768.78
2023-02-09T00:30:37.851Z,99759.69
2023-02-09T00:35:58.781Z,99757.06
2023-02-09T00:41:39.870Z,99754.03
2023-02-09T00:47:02.769Z,99762.09
2023-02-09T00:52:23.621Z,99757.81
2023-02-09T00:57:44.444Z,99759.34
2023-02-09T01:03:05.215Z,99762.94
2023-02-09T01:08:26.916Z,99759.00
2023-02-09T01:13:47.884Z,99738.34
2023-02-09T01:19:10.548Z,99728.47
2023-02-09T01:24:32.805Z,99719.19
2023-02-09T01:29:53.629Z,99699.16
2023-02-09T01:35:14.526Z,99697.66
2023-02-09T01:40:35.286Z,99683.69
2023-02-09T01:45:56.199Z,99679.72
2023-02-09T01:51:17.116Z,99678.03
2023-02-09T01:56:38.912Z,99667.28
2023-02-09T02:01:59.961Z,99663.19
2023-02-09T02:07:27.147Z,99658.63
2023-02-09T02:12:48.225Z,99655.13
2023-02-09T02:18:12.033Z,99653.00
2023-02-09T02:23:39.115Z,99647.41
2023-02-09T02:29:12.042Z,99637.09
2023-02-09T02:34:56.553Z,99629.69
2023-02-09T02:40:29.073Z,99626.94
2023-02-09T02:45:58.992Z,99631.34
2023-02-09T02:51:44.742Z,99617.41
2023-02-09T02:57:09.031Z,99612.25
2023-02-09T03:02:34.971Z,99611.78
2023-02-09T03:07:56.060Z,99614.53
2023-02-09T03:13:24.809Z,99618.91
2023-02-09T03:18:57.994Z,99611.78
2023-02-09T03:24:29.512Z,99617.25
2023-02-09T03:29:52.762Z,99607.84
2023-02-09T03:35:18.348Z,99602.56
2023-02-09T03:40:39.446Z,99600.88
2023-02-09T03:46:00.162Z,99586.31
2023-02-09T03:51:21.208Z,99583.56
2023-02-09T03:56:42.137Z,99585.25
2023-02-09T04:02:03.736Z,99575.84
2023-02-09T04:07:24.721Z,99571.00
2023-02-09T04:12:45.514Z,99570.53
2023-02-09T04:18:06.381Z,99568.69
2023-02-09T04:23:27.288Z,99575.97
2023-02-09T04:28:48.264Z,99568.84
2023-02-09T04:34:09.399Z,99573.84
2023-02-09T04:39:30.665Z,99562.00
2023-02-09T04:44:51.838Z,99563.53
2023-02-09T04:50:12.690Z,99558.06
2023-02-09T04:55:33.656Z,99554.13
2023-02-09T05:00:55.855Z,99561.69
2023-02-09T05:06:16.737Z,99546.50
2023-02-09T05:11:37.743Z,99551.66
2023-02-09T05:16:58.722Z,99537.41
2023-02-09T05:22:20.163Z,99546.06
2023-02-09T05:27:44.620Z,99553.16
2023-02-09T05:33:05.793Z,99541.97
2023-02-09T05:38:26.408Z,99547.88
2023-02-09T05:43:47.261Z,99541.03
2023-02-09T05:49:08.054Z,99552.84
2023-02-09T05:54:28.903Z,99554.94
2023-02-09T05:59:49.703Z,99555.25
2023-02-09T06:05:10.569Z,99561.00
2023-02-09T06:10:31.579Z,99563.44
2023-02-09T06:15:52.388Z,99566.16
2023-02-09T06:21:13.155Z,99567.22
2023-02-09T06:26:34.271Z,99566.78
2023-02-09T06:31:55.217Z,99557.72
2023-02-09T06:37:16.622Z,99575.31
2023-02-09T06:42:46.240Z,99562.31
2023-02-09T06:48:07.616Z,99575.88
2023-02-09T06:53:28.526Z,99574.00
2023-02-09T06:58:49.516Z,99571.47
2023-02-09T07:04:10.219Z,99564.06
2023-02-09T07:09:30.985Z,99568.91
2023-02-09T07:14:51.953Z,99577.06
2023-02-09T07:20:13.650Z,99568.16
2023-02-09T07:25:34.686Z,99580.53
2023-02-09T07:30:55.777Z,99588.81
2023-02-09T07:36:17.182Z,99581.69
2023-02-09T07:41:38.108Z,99576.38
2023-02-09T07:46:58.881Z,99576.69
2023-02-09T07:52:19.602Z,99583.88
2023-02-09T07:57:40.581Z,99586.00
2023-02-09T08:03:01.668Z,99586.97
2023-02-09T08:08:22.723Z,99581.16
2023-02-09T08:13:43.886Z,99595.84
2023-02-09T08:19:20.082Z,99600.84
2023-02-09T08:24:40.955Z,99601.06
2023-02-09T08:30:01.759Z,99588.88
2023-02-09T08:35:22.740Z,99577.34
2023-02-09T08:40:44.238Z,99581.06
2023-02-09T08:46:09.908Z,99573.16
2023-02-09T08:51:30.702Z,99575.94
2023-02-09T08:56:51.852Z,99565.66
2023-02-09T09:02:12.628Z,99570.22
2023-02-09T09:07:33.300Z,99583.06
2023-02-09T09:12:54.036Z,99577.03
2023-02-09T09:18:14.778Z,99576.44
2023-02-09T09:23:35.685Z,99577.47
2023-02-09T09:28:56.881Z,99573.47
2023-02-09T09:34:17.772Z,99574.28
2023-02-09T09:39:38.469Z,99576.28
2023-02-09T09:44:59.155Z,99566.53
2023-02-09T09:50:21.598Z,99569.97
2023-02-09T09:55:42.878Z,99571.13
2023-02-09T10:01:04.136Z,99555.97
2023-02-09T10:06:25.034Z,99570.31
2023-02-09T10:11:51.012Z,99555.16
2023-02-09T10:17:11.874Z,99542.13
2023-02-09T10:22:32.695Z,99537.63
2023-02-09T10:27:53.497Z,99533.72
2023-02-09T10:33:14.839Z,99525.69
2023-02-09T10:38:36.091Z,99516.50
2023-02-09T10:43:56.895Z,99517.34
2023-02-09T10:49:36.253Z,99518.81
2023-02-09T10:55:00.891Z,99507.75
2023-02-09T11:00:29.229Z,99498.50
2023-02-09T11:05:58.601Z,99491.47
2023-02-09T11:11:47.937Z,99476.75
2023-02-09T11:17:37.433Z,99454.97
2023-02-09T11:23:33.207Z,99445.56
2023-02-09T11:29:18.812Z,99445.44
2023-02-09T11:34:48.861Z,99432.84
2023-02-09T11:40:27.644Z,99430.63
2023-02-09T11:45:49.746Z,99413.13
2023-02-09T11:51:15.248Z,99411.81
2023-02-09T11:56:40.005Z,99416.97
2023-02-09T12:02:11.951Z,99408.13
2023-02-09T12:07:39.057Z,99387.97
2023-02-09T12:13:29.010Z,99386.06
2023-02-09T12:18:49.885Z,99378.19
2023-02-09T12:24:30.960Z,99383.72
2023-02-09T12:29:52.426Z,99374.56
2023-02-09T12:35:37.810Z,99364.00
2023-02-09T12:41:03.963Z,99353.09
2023-02-09T12:46:48.450Z,99359.72
2023-02-09T12:52:15.049Z,99352.22
2023-02-09T12:57:49.544Z,99341.84
2023-02-09T13:03:12.668Z,99348.16
2023-02-09T13:08:38.635Z,99347.66
2023-02-09T13:14:04.201Z,99335.25
2023-02-09T13:19:48.369Z,99339.78
2023-02-09T13:25:22.697Z,99337.09
2023-02-09T13:30:43.860Z,99343.59
2023-02-09T13:36:33.114Z,99350.59
2023-02-09T13:41:54.940Z,99335.00
2023-02-09T13:47:16.197Z,99336.34
2023-02-09T13:52:39.161Z,99329.75
2023-02-09T13:58:03.125Z,99325.47
2023-02-09T14:03:26.000Z,99327.97
2023-02-09T14:08:47.444Z,99325.97
2023-02-09T14:14:28.023Z,99323.06
2023-02-09T14:19:49.425Z,99316.16
2023-02-09T14:25:13.553Z,99327.03
2023-02-09T14:30:36.459Z,99322.00
2023-02-09T14:35:59.545Z,99322.53
2023-02-09T14:41:31.313Z,99312.06
2023-02-09T14:47:00.107Z,99311.72
2023-02-09T14:52:23.906Z,99316.03
2023-02-09T14:57:45.060Z,99304.41
2023-02-09T15:03:07.527Z,99300.34
2023-02-09T15:08:28.864Z,99292.81
2023-02-09T15:13:52.551Z,99291.31
2023-02-09T15:19:14.302Z,99293.00
2023-02-09T15:24:36.138Z,99288.22
2023-02-09T15:29:59.501Z,99291.34
2023-02-09T15:35:25.334Z,99308.16
2023-02-09T15:41:06.155Z,99302.00
2023-02-09T15:46:45.944Z,99298.38
2023-02-09T15:52:07.404Z,99295.25
2023-02-09T15:57:28.508Z,99308.50
2023-02-09T16:02:49.690Z,99311.69
2023-02-09T16:08:19.770Z,99312.34
2023-02-09T16:13:40.529Z,99321.47
2023-02-09T16:19:01.860Z,99329.81
2023-02-09T16:24:32.574Z,99337.16
2023-02-09T16:29:57.223Z,99338.97
2023-02-09T16:35:20.516Z,99344.09
2023-02-09T16:40:41.142Z,99349.94
2023-02-09T16:46:04.552Z,99353.25
2023-02-09T16:51:25.638Z,99348.00
2023-02-09T16:56:54.062Z,99355.56
2023-02-09T17:02:40.946Z,99337.25
2023-02-09T17:08:05.087Z,99341.50
2023-02-09T17:13:26.470Z,99343.50
2023-02-09T17:18:49.118Z,99333.22
2023-02-09T17:24:14.746Z,99318.97
2023-02-09T17:29:35.999Z,99311.44
2023-02-09T17:34:57.160Z,99310.44
2023-02-09T17:40:19.588Z,99310.69
2023-02-09T17:45:40.472Z,99308.44
2023-02-09T17:51:02.788Z,99306.69
2023-02-09T17:56:23.696Z,99307.19
2023-02-09T18:01:46.112Z,99310.94
2023-02-09T18:07:07.321Z,99325.19
2023-02-09T18:12:28.089Z,99331.19
2023-02-09T18:17:49.008Z,99337.16
2023-02-09T18:23:13.350Z,99345.66
2023-02-09T18:28:34.440Z,99305.84
2023-02-09T18:33:55.439Z,99294.53
2023-02-09T18:39:16.560Z,99311.06
2023-02-09T18:44:37.562Z,99310.56
2023-02-09T18:49:58.625Z,99324.63
2023-02-09T18:55:19.799Z,99337.09
2023-02-09T19:00:40.924Z,99341.31
2023-02-09T19:06:01.635Z,99355.22
2023-02-09T19:11:22.634Z,99366.88
2023-02-09T19:16:43.550Z,99371.06
2023-02-09T19:22:04.663Z,99382.78
2023-02-09T19:27:26.995Z,99385.50
2023-02-09T19:32:48.005Z,99390.25
2023-02-09T19:38:08.717Z,99393.69
2023-02-09T19:43:29.391Z,99394.44
2023-02-09T19:48:50.540Z,99413.13
2023-02-09T19:54:11.600Z,99406.81
2023-02-09T19:59:32.756Z,99407.53
2023-02-09T20:04:53.523Z,99408.97
2023-02-09T20:10:14.331Z,99406.97
2023-02-09T20:15:35.054Z,99390.47
2023-02-09T20:20:55.873Z,99394.22
2023-02-09T20:26:18.984Z,99398.22
2023-02-09T20:31:39.843Z,99387.13
2023-02-09T20:37:01.142Z,99379.59
2023-02-09T20:42:40.515Z,99390.00
2023-02-09T20:48:04.260Z,99392.47
2023-02-09T20:53:24.980Z,99396.13
2023-02-09T20:58:45.916Z,99396.41
2023-02-09T21:04:07.517Z,99389.94
2023-02-09T21:09:29.347Z,99402.59
2023-02-09T21:14:50.895Z,99403.41
2023-02-09T21:20:11.929Z,99390.06
2023-02-09T21:25:32.938Z,99358.34
2023-02-09T21:30:53.870Z,99353.66
2023-02-09T21:36:15.978Z,99375.31
2023-02-09T21:41:57.864Z,99379.94
2023-02-09T21:47:19.860Z,99376.13
2023-02-09T21:52:41.072Z,99381.53
2023-02-09T21:58:01.762Z,99386.00
2023-02-09T22:03:22.771Z,99392.19
2023-02-09T22:08:43.737Z,99392.63
2023-02-09T22:14:05.088Z,99387.56
2023-02-09T22:19:26.543Z,99408.00
2023-02-09T22:24:47.679Z,99410.25
2023-02-09T22:30:09.465Z,99414.28
2023-02-09T22:35:30.800Z,99411.28
2023-02-09T22:40:51.441Z,99413.75
2023-02-09T22:46:12.245Z,99408.00
2023-02-09T22:51:33.149Z,99419.50
2023-02-09T22:56:54.161Z,99422.25
2023-02-09T23:02:14.868Z,99433.25
2023-02-09T23:07:35.617Z,99435.78
2023-02-09T23:12:56.484Z,99437.84
2023-02-09T23:18:17.179Z,99428.31
2023-02-09T23:23:38.601Z,99428.50
2023-02-09T23:29:00.305Z,99432.97
2023-02-09T23:34:21.913Z,99436.59
2023-02-09T23:39:42.852Z,99434.75
2023-02-09T23:45:03.815Z,99443.25
2023-02-09T23:50:25.865Z,99437.97
2023-02-09T23:55:51.880Z,99428.63
